Weather observations for the past three days for
Jasper, Jasper County-Bell Field Airport
Imperial (Metric)
Date Time (cdt) Wind (mph) Vis. (mi.) Weather Sky Cond. Temperature (ºF) Relative Humidity Wind Chill (°F) Heat Index (°F) Pressure Precipitation (in)
Air Dwpt 6 hour altimeter (in) sea level (mb) 1 hr 3 hr 6 hr
Max. Min.
04 19:55 S 12 G 21 0.75 Heavy Rain Fog/Mist BKN003 BKN025 OVC045 78.8 75.2 89% 82 29.92 0.0 0.23
04 19:35 E 13 10.00 Thunderstorm in Vicinity SCT045 BKN055 BKN080 86 75.2 70% 95 29.92 0.0
04 19:15 S 7 10.00 Thunderstorm in Vicinity CLR 87.8 78.8 75% 102 29.9 0.0
04 18:55 SW 6 10.00 Fair CLR 87.8 77 70% 100 29.9 0.0
04 18:35 SW 7 10.00 Fair CLR 87.8 77 70% 100 29.9 0.0
04 18:15 SW 8 10.00 Fair CLR 89.6 77 67% 103 29.89 0.0
04 17:55 SW 8 10.00 Fair CLR 91.4 77 63% 105 29.89 0.0
04 17:35 SW 8 8.00 Fair CLR 91.4 77 63% 105 29.88 0.0
04 17:15 SW 12 10.00 Partly Cloudy SCT050 SCT065 91.4 77 63% 105 29.88 0.0
04 16:55 SW 13 10.00 Partly Cloudy SCT055 93.2 77 59% 107 29.88 0.0
04 16:35 SW 7 10.00 A Few Clouds FEW050 FEW075 93.2 73.4 53% 103 29.88 0.0
04 16:15 SE 6 10.00 Partly Cloudy FEW050 SCT080 95 73.4 50% 105 29.89 0.0
04 15:55 Calm 10.00 Fair CLR 95 71.6 47% 103 29.9 0.0
04 15:35 Vrbl 5 10.00 A Few Clouds FEW050 FEW055 93.2 71.6 50% 101 29.91 0.0
04 15:15 Calm 10.00 Partly Cloudy FEW050 SCT055 95 73.4 50% 105 29.91 0.0
04 14:55 Calm 10.00 Fair CLR 93.2 73.4 53% 103 29.92 0.0
04 14:35 SE 6 10.00 A Few Clouds FEW048 93.2 73.4 53% 103 29.93 0.0
04 14:15 Vrbl 5 10.00 Partly Cloudy SCT048 93.2 73.4 53% 103 29.94 0.0
04 13:35 Vrbl 5 10.00 Fair CLR 93.2 73.4 53% 103 29.95 0.0
04 13:15 Vrbl 5 10.00 Fair CLR 91.4 73.4 56% 100 29.96 0.0
04 12:55 Calm 10.00 Fair CLR 91.4 73.4 56% 100 29.96 0.0
04 12:35 Vrbl 6 10.00 Fair CLR 91.4 73.4 56% 100 29.97 0.0
04 12:15 E 5 10.00 Fair CLR 91.4 73.4 56% 100 29.98 0.0
04 11:55 Vrbl 3 10.00 Fair CLR 91.4 73.4 56% 100 29.99 0.0
04 11:35 N 3 10.00 A Few Clouds FEW030 91.4 75.2 59% 103 29.99 0.0
04 11:15 Vrbl 5 10.00 A Few Clouds FEW029 89.6 77 67% 103 29.99 0.0
04 10:55 Calm 10.00 A Few Clouds FEW020 FEW027 86 77 75% 97 29.99 0.0
04 10:35 Calm 10.00 Partly Cloudy SCT020 SCT027 87.8 77 70% 100 29.99 0.0
04 10:15 Calm 10.00 Fair CLR 86 78.8 79% 99 29.99 0.0
04 09:55 E 3 10.00 Fair CLR 84.2 80.6 89% 98 29.99 0.0
04 09:35 E 3 10.00 Fair CLR 84.2 80.6 89% 98 29.99 0.0
04 09:15 Calm 10.00 Fair CLR 82.4 78.8 89% 92 29.99 0.0
04 08:55 Calm 9.00 Fair CLR 80.6 78.8 94% 88 29.99 0.0
04 08:35 E 3 8.00 Fair CLR 78.8 78.8 100% 83 29.98 0.0
04 08:15 Calm 7.00 Fair CLR 77 77 100% 78 29.97 0.0
04 07:55 Calm 5.00 Fog/Mist CLR 75.2 75.2 100% 73 29.97 0.0
04 07:15 Calm 3.00 Fog/Mist CLR 73.4 73.4 100% 29.96 0.0
04 06:55 Calm 1.75 Fog/Mist CLR 73.4 73.4 100% 29.95 0.0
04 06:35 Calm 2.00 Fog/Mist CLR 73.4 73.4 100% 29.95 0.0
04 06:15 Calm 4.00 Fog/Mist CLR 73.4 73.4 100% 29.95 0.0
04 05:55 Calm 4.00 Fog/Mist CLR 73.4 73.4 100% 29.95 0.0
04 05:35 Calm 3.00 Fog/Mist CLR 73.4 73.4 100% 29.95 0.0
04 05:15 Calm 5.00 Fog/Mist CLR 73.4 73.4 100% 29.94 0.0
04 04:55 Calm 4.00 Fog/Mist CLR 73.4 73.4 100% 29.94 0.0
04 04:35 Calm 4.00 Fog/Mist CLR 73.4 73.4 100% 29.94 0.0
04 04:15 Calm 3.00 Fog/Mist CLR 73.4 73.4 100% 29.94 0.0
04 03:55 Calm 4.00 Fog/Mist CLR 75.2 75.2 100% 73 29.94 0.0
04 03:35 Calm 4.00 Fog/Mist CLR 75.2 75.2 100% 73 29.94 0.0
04 03:15 Calm 3.00 Fog/Mist CLR 75.2 75.2 100% 73 29.94 0.0
04 02:55 Calm 5.00 Fog/Mist CLR 75.2 75.2 100% 73 29.94 0.0
04 02:35 Calm 4.00 Fog/Mist CLR 75.2 75.2 100% 73 29.94 0.0
04 02:15 Calm 2.50 Fog/Mist CLR 73.4 73.4 100% 29.93 0.0
04 01:55 Calm 4.00 Fog/Mist CLR 75.2 75.2 100% 73 29.93 0.0
04 01:35 Calm 4.00 Fog/Mist CLR 75.2 75.2 100% 73 29.93 0.0
04 01:15 Calm 4.00 Fog/Mist CLR 75.2 75.2 100% 73 29.93 0.0
04 00:55 Calm 4.00 Fog/Mist CLR 75.2 75.2 100% 73 29.93 0.0
04 00:35 Calm 5.00 Fog/Mist CLR 75.2 75.2 100% 73 29.92 0.0
04 00:15 Calm 5.00 Fog/Mist CLR 75.2 75.2 100% 73 29.92 0.0
03 23:55 Calm 6.00 Fog/Mist CLR 75.2 75.2 100% 73 29.92 0.0
03 23:35 Calm 8.00 Fair CLR 75.2 75.2 100% 73 29.93 0.0
03 23:15 Calm 6.00 Fog/Mist CLR 75.2 75.2 100% 73 29.93 0.0
03 22:55 Calm 8.00 Fair CLR 75.2 75.2 100% 73 29.93 0.0
03 22:35 Calm 9.00 Fair CLR 75.2 75.2 100% 73 29.93 0.0
03 22:15 Calm 9.00 Fair CLR 77 77 100% 78 29.93 0.0
03 21:55 Calm 10.00 Fair CLR 77 77 100% 78 29.93 0.0
03 21:35 Calm 10.00 Fair CLR 77 77 100% 78 29.94 0.0
03 21:15 Calm 10.00 Fair CLR 77 77 100% 78 29.93 0.0
03 20:35 Calm 10.00 Fair CLR 78.8 77 94% 83 29.92 0.0
03 20:15 Calm 10.00 Fair CLR 78.8 77 94% 83 29.91 0.0
03 19:55 Calm 10.00 Fair CLR 80.6 75.2 84% 86 29.91 0.0
03 19:35 Vrbl 5 10.00 Fair CLR 80.6 75.2 84% 86 29.9 0.0
03 19:15 Calm 10.00 Fair CLR 82.4 75.2 79% 89 29.9 0.0
03 18:55 Calm 10.00 Fair CLR 84.2 75.2 74% 92 29.9 0.0
03 18:35 Vrbl 3 10.00 Fair CLR 86 75.2 70% 95 29.91 0.0
03 18:15 Vrbl 3 10.00 Fair CLR 86 75.2 70% 95 29.91 0.0
03 17:55 SE 5 10.00 Fair CLR 86 75.2 70% 95 29.91 0.0
03 17:35 SE 7 10.00 A Few Clouds FEW120 87.8 75.2 66% 98 29.91 0.0
03 17:15 Vrbl 6 G 12 10.00 Fair CLR 89.6 75.2 63% 100 29.91 0.0
03 16:55 SE 7 10.00 Fair CLR 89.6 75.2 63% 100 29.92 0.0
03 16:35 SE 5 10.00 Fair CLR 89.6 73.4 59% 98 29.93 0.0
03 16:15 Vrbl 6 10.00 Fair CLR 89.6 73.4 59% 98 29.94 0.0
03 15:55 Calm 10.00 Fair CLR 89.6 73.4 59% 98 29.95 0.0
03 15:35 SE 8 10.00 Fair CLR 89.6 75.2 63% 100 29.95 0.0
03 15:15 E 7 10.00 Fair CLR 89.6 77 67% 103 29.95 0.0
03 14:55 E 5 10.00 Fair CLR 87.8 77 70% 100 29.95 0.0
03 14:35 Calm 10.00 Fair CLR 86 77 75% 97 29.96 0.0
03 14:15 S 5 10.00 Fair CLR 84.2 75.2 74% 92 29.97 0.0
03 13:55 Vrbl 3 10.00 Fair CLR 84.2 77 79% 94 29.97 0.0
03 13:35 Vrbl 3 10.00 Fair CLR 84.2 77 79% 94 29.98 0.0
03 13:15 SW 5 10.00 Thunderstorm in Vicinity CLR 82.4 77 84% 91 29.96 0.0
03 12:55 Calm 9.00 Light Rain CLR 78.8 77 94% 83 29.97 0.0
03 12:35 Calm 10.00 Fair CLR 78.8 77 94% 83 30 0.0
03 12:15 SW 7 10.00 Fair CLR 78.8 77 94% 83 30.02 0.0
03 11:55 SW 7 G 13 2.00 Thunderstorm in Vicinity Rain Fog/Mist FEW028 SCT037 SCT049 77 75.2 94% 78 30.01 0.0 0.02
03 11:35 SW 13 10.00 Thunderstorm in Vicinity FEW027 BKN036 BKN048 80.6 75.2 84% 86 30.01 0.0
03 11:15 Vrbl 6 10.00 Partly Cloudy FEW017 SCT024 SCT032 87.8 80.6 79% 105 29.99 0.0
03 10:55 S 6 10.00 Thunderstorm in Vicinity BKN017 BKN023 BKN030 86 80.6 84% 102 29.99 0.0
03 10:35 SW 3 10.00 Thunderstorm in Vicinity FEW013 SCT021 BKN047 86 80.6 84% 102 29.98 0.0
03 10:15 Calm 10.00 Thunderstorm SCT013 SCT020 86 80.6 84% 102 29.98 0.0
03 09:55 Calm 10.00 Thunderstorm in Vicinity SCT013 BKN019 86 82.4 89% 105 29.99 0.0
03 09:35 Calm 10.00 Mostly Cloudy BKN019 BKN026 84.2 82.4 94% 101 29.99 0.0
03 09:15 Calm 9.00 Partly Cloudy FEW020 SCT026 82.4 80.6 94% 94 29.99 0.0
03 08:55 Calm 6.00 Thunderstorm in Vicinity Fog/Mist FEW004 SCT024 80.6 80.6 100% 89 29.99 0.0
03 08:35 E 6 6.00 Fog/Mist FEW004 SCT025 78.8 78.8 100% 83 30 0.0
03 08:15 Calm 6.00 Fog/Mist CLR 78.8 78.8 100% 83 29.99 0.0
03 07:55 Calm 6.00 Fog/Mist CLR 77 77 100% 78 29.99 0.0
03 07:35 E 3 5.00 Fog/Mist CLR 77 77 100% 78 29.98 0.0
03 07:15 Calm 5.00 Fog/Mist CLR 77 77 100% 78 29.98 0.0
03 06:55 Calm 5.00 Light Rain Fog/Mist FEW050 FEW060 77 77 100% 78 29.97 0.0
03 06:35 Calm 6.00 Fog/Mist SCT060 SCT070 SCT090 77 77 100% 78 29.97 0.0
03 06:15 E 3 7.00 Overcast BKN060 OVC070 77 77 100% 78 29.96 0.0
03 05:55 Calm 6.00 Fog/Mist SCT055 OVC070 77 77 100% 78 29.95 0.0
03 05:35 Calm 7.00 Light Rain FEW035 SCT060 OVC070 77 77 100% 78 29.95 0.0
03 05:15 Calm 8.00 Overcast FEW037 BKN050 OVC065 77 77 100% 78 29.95 0.0
03 04:55 Calm 8.00 Partly Cloudy FEW032 FEW050 SCT065 77 77 100% 78 29.95 0.0
03 04:35 Calm 9.00 Fair CLR 77 77 100% 78 29.95 0.0
03 04:15 Calm 7.00 Fair CLR 77 77 100% 78 29.95 0.0
03 03:55 Calm 7.00 Fair CLR 77 77 100% 78 29.95 0.0
03 03:35 Calm 7.00 Fair CLR 77 77 100% 78 29.95 0.0
03 03:15 Calm 8.00 Fair CLR 77 77 100% 78 29.94 0.0
03 02:55 Calm 8.00 Fair CLR 77 77 100% 78 29.94 0.0
03 02:35 Vrbl 5 8.00 Fair CLR 77 77 100% 78 29.94 0.0
03 02:15 Calm 7.00 Fair CLR 77 77 100% 78 29.95 0.0
03 01:55 Calm 8.00 Fair CLR 77 77 100% 78 29.95 0.0
03 01:35 Calm 8.00 Fair CLR 77 77 100% 78 29.96 0.0
03 01:15 Calm 8.00 Fair CLR 78.8 78.8 100% 83 29.96 0.0
03 00:55 Calm 8.00 Fair CLR 78.8 78.8 100% 83 29.96 0.0
03 00:35 S 6 9.00 Fair CLR 78.8 78.8 100% 83 29.96 0.0
03 00:15 Vrbl 5 9.00 Fair CLR 78.8 78.8 100% 83 29.96 0.0
02 23:55 Vrbl 5 8.00 Partly Cloudy FEW047 SCT055 SCT070 77 77 100% 78 29.96 0.0
02 23:35 Calm 8.00 Mostly Cloudy FEW035 SCT047 BKN060 77 77 100% 78 29.96 0.0
02 23:15 Vrbl 5 7.00 Light Rain FEW035 SCT046 BKN060 77 77 100% 78 29.97 0.0
02 22:55 SE 6 8.00 Light Rain FEW045 BKN060 OVC120 77 77 100% 78 29.97 0.0 0.01
02 22:15 Vrbl 5 7.00 Light Rain FEW031 BKN038 OVC120 77 77 100% 78 29.97 0.0
02 21:55 SE 8 4.00 Light Rain Fog/Mist SCT033 BKN041 OVC075 77 77 100% 78 29.98 0.0 0.04
02 21:35 Calm 5.00 Light Rain Fog/Mist FEW040 BKN055 OVC075 78.8 78.8 100% 83 29.99 0.0
02 21:15 Calm 6.00 Light Rain Fog/Mist SCT043 BKN060 OVC095 77 77 100% 78 29.98 0.0
02 20:55 Calm 4.00 Light Rain Fog/Mist FEW030 BKN040 OVC110 77 77 100% 78 29.96 0.0 0.02
02 20:35 Calm 5.00 Thunderstorm in Vicinity Rain Fog/Mist SCT037 BKN049 OVC075 77 77 100% 78 29.96 0.0
02 20:15 Calm 6.00 Thunderstorm in Vicinity Rain Fog/Mist FEW037 SCT042 BKN055 77 77 100% 78 29.96 0.0
02 19:55 E 3 7.00 Light Rain FEW039 SCT047 OVC065 77 77 100% 78 29.95 0.0 0.01
02 19:35 Calm 8.00 Thunderstorm in Vicinity FEW037 FEW044 SCT050 77 77 100% 78 29.94 0.0
02 19:15 Calm 4.00 Light Rain Fog/Mist FEW027 BKN047 BKN055 78.8 78.8 100% 83 29.94 0.0
02 18:55 Calm 7.00 Thunderstorm in Vicinity Rain FEW027 SCT046 SCT055 78.8 78.8 100% 83 29.96 0.0
02 18:15 NW 5 7.00 Thunderstorm in Vicinity FEW065 78.8 78.8 100% 83 29.95 0.0
02 17:55 Calm 8.00 Thunderstorm in Vicinity CLR 78.8 78.8 100% 83 29.94 0.0
02 17:35 Calm 6.00 Thunderstorm in Vicinity Fog/Mist CLR 77 77 100% 78 29.95 0.0
02 17:15 Calm 9.00 Thunderstorm in Vicinity CLR 77 77 100% 78 29.94 0.0
02 16:55 SE 7 G 16 0.25 Thunderstorm in Vicinity Rain Fog BKN003 BKN018 BKN029 77 75.2 94% 78 29.94 0.0 0.22
02 16:35 Vrbl 6 G 13 10.00 Thunderstorm in Vicinity CLR 84.2 80.6 89% 98 29.94 0.0
02 16:15 SE 8 10.00 Fair CLR 84.2 80.6 89% 98 29.94 0.0
02 15:55 Vrbl 6 G 12 10.00 Thunderstorm in Vicinity FEW018 FEW023 SCT065 84.2 80.6 89% 98 29.94 0.0
02 15:35 Vrbl 6 10.00 Thunderstorm in Vicinity FEW019 BKN065 BKN075 84.2 80.6 89% 98 29.95 0.0
02 15:15 Vrbl 6 9.00 Mostly Cloudy BKN065 84.2 80.6 89% 98 29.95 0.0
02 14:55 Vrbl 5 9.00 Partly Cloudy FEW013 FEW025 SCT065 82.4 80.6 94% 94 29.96 0.0
02 14:35 SE 8 9.00 A Few Clouds FEW013 FEW021 FEW026 82.4 80.6 94% 94 29.96 0.0
02 14:15 Vrbl 5 9.00 Fair CLR 80.6 78.8 94% 88 29.96 0.0
02 13:55 SE 6 9.00 Fair CLR 78.8 78.8 100% 83 29.96 0.0
02 13:35 SE 5 9.00 Partly Cloudy FEW022 SCT027 SCT034 78.8 77 94% 83 29.98 0.0
02 13:15 Vrbl 5 10.00 Mostly Cloudy BKN020 BKN027 BKN038 77 77 100% 78 29.98 0.0
02 12:55 Vrbl 6 G 12 10.00 Overcast BKN018 OVC023 77 77 100% 78 29.99 0.0
02 12:35 E 6 10.00 Mostly Cloudy SCT019 BKN023 BKN029 77 77 100% 78 29.99 0.0
02 12:15 E 5 9.00 Mostly Cloudy FEW016 BKN022 BKN033 77 77 100% 78 30 0.0
02 11:35 Calm 8.00 Light Rain FEW018 FEW025 75.2 75.2 100% 73 30.01 0.0
02 11:15 SW 7 5.00 Light Rain Fog/Mist FEW030 75.2 75.2 100% 73 30.01 0.0
02 10:55 Vrbl 5 5.00 Light Rain Fog/Mist FEW029 75.2 75.2 100% 73 30.02 0.0 0.06
02 10:35 Calm 5.00 Light Rain Fog/Mist FEW012 FEW046 75.2 75.2 100% 73 30.02 0.0
02 10:15 S 5 5.00 Light Rain Fog/Mist CLR 75.2 75.2 100% 73 30.02 0.0
02 09:55 S 7 G 16 3.00 Light Rain Fog/Mist FEW009 FEW041 SCT047 75.2 75.2 100% 73 29.99 0.0 0.07
02 09:15 SW 10 3.00 Light Rain Fog/Mist FEW006 SCT044 BKN050 73.4 73.4 100% 29.98 0.0
02 08:55 SW 12 G 17 2.00 Rain Fog/Mist SCT006 BKN025 OVC046 73.4 73.4 100% 29.98 0.0 0.16
02 08:35 SW 12 1.00 Heavy Rain Fog/Mist SCT004 BKN024 OVC036 73.4 73.4 100% 29.99 0.0
02 08:15 SW 13 2.50 Thunderstorm in Vicinity Rain Fog/Mist SCT033 BKN040 OVC060 73.4 73.4 100% 29.98 0.0
02 07:35 S 10 G 18 3.00 Thunderstorm in Vicinity Rain Fog/Mist FEW010 BKN034 OVC041 75.2 75.2 100% 73 29.97 0.0
02 07:15 SW 13 3.00 Light Rain Fog/Mist FEW007 SCT028 BKN033 75.2 75.2 100% 73 29.96 0.0
02 06:55 SW 10 3.00 Light Rain Fog/Mist SCT007 BKN030 OVC046 75.2 75.2 100% 73 29.96 0.0 0.2
02 06:35 S 12 G 22 3.00 Light Rain Fog/Mist SCT009 BKN023 OVC032 75.2 75.2 100% 73 29.96 0.0
02 06:15 S 14 G 23 1.75 Heavy Rain Fog/Mist SCT006 BKN011 OVC023 75.2 75.2 100% 73 29.95 0.0
02 05:55 Vrbl 3 2.50 Rain Fog/Mist SCT024 BKN032 OVC038 77 77 100% 78 29.94 0.0 0.11
02 05:35 Vrbl 6 4.00 Thunderstorm in Vicinity Rain Fog/Mist FEW009 BKN032 OVC055 77 77 100% 78 29.94 0.0
02 05:15 SE 8 4.00 Light Rain Fog/Mist FEW023 BKN035 OVC070 77 77 100% 78 29.94 0.0
02 04:55 Vrbl 5 5.00 Light Rain Fog/Mist FEW031 BKN038 OVC045 77 77 100% 78 29.94 0.0 0.09
02 04:35 SE 6 3.00 Thunderstorm in Vicinity Rain Fog/Mist BKN033 OVC040 77 77 100% 78 29.94 0.0
02 04:15 Vrbl 5 3.00 Light Rain Fog/Mist FEW006 SCT031 OVC036 77 77 100% 78 29.94 0.0
02 03:55 SE 6 3.00 Thunderstorm in Vicinity Rain Fog/Mist FEW023 BKN033 OVC044 77 77 100% 78 29.94 0.0 0.08
02 03:35 Vrbl 6 4.00 Light Rain Fog/Mist FEW005 BKN031 OVC049 77 77 100% 78 29.93 0.0
02 03:15 Calm 5.00 Light Rain Fog/Mist SCT006 BKN030 OVC075 77 77 100% 78 29.94 0.0
02 02:55 SE 5 5.00 Light Rain Fog/Mist SCT007 BKN031 OVC070 77 77 100% 78 29.95 0.0 0.03
02 02:35 Vrbl 3 7.00 Light Rain BKN007 BKN023 OVC045 77 77 100% 78 29.95 0.0
02 02:15 Calm 8.00 Thunderstorm in Vicinity Rain SCT006 BKN028 OVC120 77 77 100% 78 29.94 0.0
02 01:55 Calm 7.00 Thunderstorm in Vicinity Rain FEW006 SCT030 BKN055 75.2 75.2 100% 73 29.95 0.0 0.01
02 01:35 Vrbl 5 8.00 Light Rain FEW020 BKN060 OVC100 75.2 75.2 100% 73 29.95 0.0
02 01:15 SE 9 9.00 Light Rain FEW030 SCT044 BKN065 75.2 75.2 100% 73 29.95 0.0
02 00:55 Vrbl 7 G 18 5.00 Light Rain Fog/Mist SCT031 BKN049 OVC070 77 77 100% 78 29.95 0.0 0.01
02 00:35 E 9 10.00 Mostly Cloudy FEW026 FEW034 BKN050 77 77 100% 78 29.95 0.0
02 00:15 Vrbl 6 G 13 10.00 Mostly Cloudy FEW027 SCT043 BKN075 77 77 100% 78 29.95 0.0
01 23:55 SE 7 G 18 3.00 Light Rain Fog/Mist SCT028 BKN045 OVC075 77 77 100% 78 29.95 0.0 0.2
01 23:35 SE 8 G 17 10.00 Overcast SCT006 BKN040 OVC110 77 77 100% 78 29.95 0.0
01 23:15 Vrbl 6 G 13 1.00 Heavy Rain Fog/Mist BKN007 OVC012 77 77 100% 78 29.95 0.0
01 22:55 E 10 G 17 1.50 Thunderstorm in Vicinity Rain Fog/Mist BKN009 BKN018 OVC031 77 77 100% 78 29.94 0.0 0.13
01 22:35 E 10 G 20 2.50 Rain Fog/Mist FEW005 SCT033 BKN060 77 77 100% 78 29.95 0.0
01 22:15 E 9 10.00 Light Rain FEW034 BKN075 OVC090 77 77 100% 78 29.93 0.0
01 21:55 Vrbl 8 G 15 9.00 Light Rain SCT036 BKN055 OVC090 77 77 100% 78 29.93 0.0 0.02
01 21:35 E 6 G 15 9.00 Light Rain SCT031 BKN038 OVC048 77 77 100% 78 29.92 0.0
01 21:15 E 8 G 14 7.00 Thunderstorm in Vicinity Rain FEW022 SCT031 OVC038 77 77 100% 78 29.91 0.0
01 20:55 E 8 G 14 9.00 Light Rain SCT022 BKN032 OVC075 77 77 100% 78 29.91 0.0 0.06
01 20:35 E 8 G 15 5.00 Light Rain Fog/Mist SCT023 BKN034 OVC075 77 77 100% 78 29.9 0.0
01 20:15 E 7 G 15 4.00 Light Rain Fog/Mist SCT029 BKN050 OVC075 77 77 100% 78 29.9 0.0
Date Time (cdt) Wind (mph) Vis. (mi.) Weather Sky Cond. Air Dwpt Max. Min. Relative Humidity Wind Chill (°F) Heat Index (°F) altimeter (in) sea level (mb) 1 hr 3 hr 6 hr
6 hour
Temperature (ºF) Pressure Precipitation (in)